sensor_id;sensor_type;location;lat;lon;timestamp;P1;durP1;ratioP1;P2;durP2;ratioP2
29984;SDS011;17387;42.690;23.328;2022-11-25T00:02:10;8.50;;;4.45;;
29984;SDS011;17387;42.690;23.328;2022-11-25T00:04:36;6.28;;;4.00;;
29984;SDS011;17387;42.690;23.328;2022-11-25T00:07:03;6.93;;;4.60;;
29984;SDS011;17387;42.690;23.328;2022-11-25T00:09:28;7.57;;;4.65;;
29984;SDS011;17387;42.690;23.328;2022-11-25T00:11:53;6.15;;;3.88;;
29984;SDS011;17387;42.690;23.328;2022-11-25T00:14:19;5.30;;;4.43;;
29984;SDS011;17387;42.690;23.328;2022-11-25T00:16:44;5.32;;;4.15;;
29984;SDS011;17387;42.690;23.328;2022-11-25T00:19:10;5.78;;;4.45;;
29984;SDS011;17387;42.690;23.328;2022-11-25T00:21:35;5.32;;;4.15;;
29984;SDS011;17387;42.690;23.328;2022-11-25T00:24:02;5.93;;;4.00;;
29984;SDS011;17387;42.690;23.328;2022-11-25T00:26:30;6.18;;;4.65;;
29984;SDS011;17387;42.690;23.328;2022-11-25T00:29:00;5.78;;;4.13;;
29984;SDS011;17387;42.690;23.328;2022-11-25T00:31:28;7.28;;;4.50;;
29984;SDS011;17387;42.690;23.328;2022-11-25T00:33:55;7.70;;;4.10;;
29984;SDS011;17387;42.690;23.328;2022-11-25T00:38:51;9.77;;;4.80;;
29984;SDS011;17387;42.690;23.328;2022-11-25T00:41:21;6.65;;;4.82;;
29984;SDS011;17387;42.690;23.328;2022-11-25T00:44:06;6.53;;;5.07;;
29984;SDS011;17387;42.690;23.328;2022-11-25T00:46:52;8.45;;;5.13;;
29984;SDS011;17387;42.690;23.328;2022-11-25T00:49:17;7.75;;;5.30;;
29984;SDS011;17387;42.690;23.328;2022-11-25T00:51:42;6.55;;;4.78;;
29984;SDS011;17387;42.690;23.328;2022-11-25T00:54:08;7.45;;;4.53;;
29984;SDS011;17387;42.690;23.328;2022-11-25T00:56:33;9.00;;;5.28;;
29984;SDS011;17387;42.690;23.328;2022-11-25T00:58:59;8.57;;;5.35;;
29984;SDS011;17387;42.690;23.328;2022-11-25T01:01:24;8.30;;;5.47;;
29984;SDS011;17387;42.690;23.328;2022-11-25T01:03:50;7.40;;;5.03;;
29984;SDS011;17387;42.690;23.328;2022-11-25T01:06:16;5.53;;;4.43;;
29984;SDS011;17387;42.690;23.328;2022-11-25T01:08:42;7.72;;;5.35;;
29984;SDS011;17387;42.690;23.328;2022-11-25T01:11:09;7.35;;;5.00;;
29984;SDS011;17387;42.690;23.328;2022-11-25T01:13:36;7.25;;;5.15;;
29984;SDS011;17387;42.690;23.328;2022-11-25T01:16:05;6.20;;;4.95;;
29984;SDS011;17387;42.690;23.328;2022-11-25T01:18:32;6.30;;;5.00;;
29984;SDS011;17387;42.690;23.328;2022-11-25T01:21:11;6.88;;;4.90;;
29984;SDS011;17387;42.690;23.328;2022-11-25T01:23:41;7.10;;;4.70;;
29984;SDS011;17387;42.690;23.328;2022-11-25T01:26:11;8.25;;;4.97;;
29984;SDS011;17387;42.690;23.328;2022-11-25T01:28:38;6.70;;;4.30;;
29984;SDS011;17387;42.690;23.328;2022-11-25T01:31:07;7.88;;;4.57;;
29984;SDS011;17387;42.690;23.328;2022-11-25T01:33:38;7.60;;;4.75;;
29984;SDS011;17387;42.690;23.328;2022-11-25T01:36:06;6.80;;;5.00;;
29984;SDS011;17387;42.690;23.328;2022-11-25T01:38:34;6.60;;;4.70;;
29984;SDS011;17387;42.690;23.328;2022-11-25T01:41:00;8.95;;;4.78;;
29984;SDS011;17387;42.690;23.328;2022-11-25T01:43:26;5.93;;;4.28;;
29984;SDS011;17387;42.690;23.328;2022-11-25T01:45:54;6.40;;;4.30;;
29984;SDS011;17387;42.690;23.328;2022-11-25T01:48:38;6.03;;;4.55;;
29984;SDS011;17387;42.690;23.328;2022-11-25T01:54:05;5.38;;;4.45;;
29984;SDS011;17387;42.690;23.328;2022-11-25T01:56:35;5.38;;;4.30;;
29984;SDS011;17387;42.690;23.328;2022-11-25T01:59:06;8.13;;;4.07;;
29984;SDS011;17387;42.690;23.328;2022-11-25T02:01:31;5.88;;;3.75;;
29984;SDS011;17387;42.690;23.328;2022-11-25T02:03:57;5.82;;;3.80;;
29984;SDS011;17387;42.690;23.328;2022-11-25T02:06:24;5.50;;;3.88;;
29984;SDS011;17387;42.690;23.328;2022-11-25T02:08:54;5.72;;;3.80;;
29984;SDS011;17387;42.690;23.328;2022-11-25T02:11:25;5.03;;;3.95;;
29984;SDS011;17387;42.690;23.328;2022-11-25T02:13:54;5.65;;;3.30;;
29984;SDS011;17387;42.690;23.328;2022-11-25T02:16:21;4.88;;;3.88;;
29984;SDS011;17387;42.690;23.328;2022-11-25T02:18:47;4.22;;;3.22;;
29984;SDS011;17387;42.690;23.328;2022-11-25T02:21:14;6.65;;;3.60;;
29984;SDS011;17387;42.690;23.328;2022-11-25T02:23:46;6.63;;;3.57;;
29984;SDS011;17387;42.690;23.328;2022-11-25T02:26:22;4.28;;;2.72;;
29984;SDS011;17387;42.690;23.328;2022-11-25T02:28:48;4.32;;;3.22;;
29984;SDS011;17387;42.690;23.328;2022-11-25T02:31:17;4.03;;;3.20;;
29984;SDS011;17387;42.690;23.328;2022-11-25T02:33:46;4.20;;;3.03;;
29984;SDS011;17387;42.690;23.328;2022-11-25T02:36:13;4.32;;;2.75;;
29984;SDS011;17387;42.690;23.328;2022-11-25T02:38:43;4.65;;;3.10;;
29984;SDS011;17387;42.690;23.328;2022-11-25T02:41:15;4.03;;;2.95;;
29984;SDS011;17387;42.690;23.328;2022-11-25T02:43:43;4.60;;;3.35;;
29984;SDS011;17387;42.690;23.328;2022-11-25T02:46:10;3.78;;;2.97;;
29984;SDS011;17387;42.690;23.328;2022-11-25T02:48:40;5.13;;;3.30;;
29984;SDS011;17387;42.690;23.328;2022-11-25T02:51:07;3.67;;;3.25;;
29984;SDS011;17387;42.690;23.328;2022-11-25T02:53:34;4.03;;;3.00;;
29984;SDS011;17387;42.690;23.328;2022-11-25T02:56:00;4.75;;;3.53;;
29984;SDS011;17387;42.690;23.328;2022-11-25T02:58:26;4.72;;;2.72;;
29984;SDS011;17387;42.690;23.328;2022-11-25T03:00:52;4.07;;;3.22;;
29984;SDS011;17387;42.690;23.328;2022-11-25T03:03:17;4.28;;;3.40;;
29984;SDS011;17387;42.690;23.328;2022-11-25T03:05:43;5.47;;;3.60;;
29984;SDS011;17387;42.690;23.328;2022-11-25T03:08:08;4.35;;;3.30;;
29984;SDS011;17387;42.690;23.328;2022-11-25T03:10:34;4.57;;;3.22;;
29984;SDS011;17387;42.690;23.328;2022-11-25T03:13:00;6.38;;;3.47;;
29984;SDS011;17387;42.690;23.328;2022-11-25T03:15:26;4.75;;;3.47;;
29984;SDS011;17387;42.690;23.328;2022-11-25T03:17:51;5.35;;;3.75;;
29984;SDS011;17387;42.690;23.328;2022-11-25T03:20:17;4.22;;;3.50;;
29984;SDS011;17387;42.690;23.328;2022-11-25T03:22:43;5.10;;;3.78;;
29984;SDS011;17387;42.690;23.328;2022-11-25T03:25:10;4.95;;;4.38;;
29984;SDS011;17387;42.690;23.328;2022-11-25T03:27:36;6.18;;;4.07;;
29984;SDS011;17387;42.690;23.328;2022-11-25T03:30:04;6.47;;;3.92;;
29984;SDS011;17387;42.690;23.328;2022-11-25T03:32:33;5.70;;;4.20;;
29984;SDS011;17387;42.690;23.328;2022-11-25T03:34:58;6.53;;;5.05;;
29984;SDS011;17387;42.690;23.328;2022-11-25T03:37:24;6.43;;;4.25;;
29984;SDS011;17387;42.690;23.328;2022-11-25T03:39:49;6.82;;;4.75;;
29984;SDS011;17387;42.690;23.328;2022-11-25T03:42:15;6.78;;;4.53;;
29984;SDS011;17387;42.690;23.328;2022-11-25T03:44:40;6.28;;;4.65;;
29984;SDS011;17387;42.690;23.328;2022-11-25T03:47:06;8.82;;;4.93;;
29984;SDS011;17387;42.690;23.328;2022-11-25T03:49:31;5.68;;;3.80;;
29984;SDS011;17387;42.690;23.328;2022-11-25T03:51:57;5.78;;;4.30;;
29984;SDS011;17387;42.690;23.328;2022-11-25T03:54:22;6.85;;;4.25;;
29984;SDS011;17387;42.690;23.328;2022-11-25T03:56:47;5.07;;;4.10;;
29984;SDS011;17387;42.690;23.328;2022-11-25T03:59:13;6.40;;;4.63;;
29984;SDS011;17387;42.690;23.328;2022-11-25T04:01:38;9.95;;;4.43;;
29984;SDS011;17387;42.690;23.328;2022-11-25T04:04:04;5.30;;;3.65;;
29984;SDS011;17387;42.690;23.328;2022-11-25T04:06:30;6.38;;;4.47;;
29984;SDS011;17387;42.690;23.328;2022-11-25T04:08:56;6.10;;;4.35;;
29984;SDS011;17387;42.690;23.328;2022-11-25T04:11:22;5.97;;;4.35;;
29984;SDS011;17387;42.690;23.328;2022-11-25T04:14:07;6.72;;;4.35;;
29984;SDS011;17387;42.690;23.328;2022-11-25T04:16:33;6.05;;;4.00;;
29984;SDS011;17387;42.690;23.328;2022-11-25T04:18:58;5.80;;;4.00;;
29984;SDS011;17387;42.690;23.328;2022-11-25T04:21:23;5.43;;;4.30;;
29984;SDS011;17387;42.690;23.328;2022-11-25T04:23:49;6.43;;;4.32;;
29984;SDS011;17387;42.690;23.328;2022-11-25T04:26:14;6.28;;;3.78;;
29984;SDS011;17387;42.690;23.328;2022-11-25T04:28:40;5.43;;;4.18;;
29984;SDS011;17387;42.690;23.328;2022-11-25T04:31:06;3.78;;;2.83;;
29984;SDS011;17387;42.690;23.328;2022-11-25T04:33:32;5.10;;;3.95;;
29984;SDS011;17387;42.690;23.328;2022-11-25T04:35:57;5.15;;;3.95;;
29984;SDS011;17387;42.690;23.328;2022-11-25T04:38:22;5.82;;;4.13;;
29984;SDS011;17387;42.690;23.328;2022-11-25T04:40:48;5.93;;;4.18;;
29984;SDS011;17387;42.690;23.328;2022-11-25T04:43:13;4.85;;;3.80;;
29984;SDS011;17387;42.690;23.328;2022-11-25T04:45:39;6.05;;;3.60;;
29984;SDS011;17387;42.690;23.328;2022-11-25T04:48:04;4.40;;;3.53;;
29984;SDS011;17387;42.690;23.328;2022-11-25T04:50:30;4.72;;;3.95;;
29984;SDS011;17387;42.690;23.328;2022-11-25T04:52:55;4.43;;;3.80;;
29984;SDS011;17387;42.690;23.328;2022-11-25T04:55:20;5.32;;;3.85;;
29984;SDS011;17387;42.690;23.328;2022-11-25T04:57:46;5.68;;;4.00;;
29984;SDS011;17387;42.690;23.328;2022-11-25T05:00:11;4.93;;;4.10;;
29984;SDS011;17387;42.690;23.328;2022-11-25T05:02:37;5.85;;;4.13;;
29984;SDS011;17387;42.690;23.328;2022-11-25T05:05:03;4.82;;;4.18;;
29984;SDS011;17387;42.690;23.328;2022-11-25T05:07:29;5.07;;;4.13;;
29984;SDS011;17387;42.690;23.328;2022-11-25T05:09:55;6.32;;;4.45;;
29984;SDS011;17387;42.690;23.328;2022-11-25T05:12:22;6.78;;;3.90;;
29984;SDS011;17387;42.690;23.328;2022-11-25T05:14:50;6.03;;;4.40;;
29984;SDS011;17387;42.690;23.328;2022-11-25T05:17:16;5.30;;;4.15;;
29984;SDS011;17387;42.690;23.328;2022-11-25T05:19:44;9.55;;;4.32;;
29984;SDS011;17387;42.690;23.328;2022-11-25T05:22:14;6.82;;;3.83;;
29984;SDS011;17387;42.690;23.328;2022-11-25T05:24:50;8.50;;;4.57;;
29984;SDS011;17387;42.690;23.328;2022-11-25T05:27:15;5.60;;;4.47;;
29984;SDS011;17387;42.690;23.328;2022-11-25T05:29:41;5.32;;;4.03;;
29984;SDS011;17387;42.690;23.328;2022-11-25T05:32:07;4.82;;;3.90;;
29984;SDS011;17387;42.690;23.328;2022-11-25T05:34:33;5.40;;;3.70;;
29984;SDS011;17387;42.690;23.328;2022-11-25T05:36:59;5.80;;;3.88;;
29984;SDS011;17387;42.690;23.328;2022-11-25T05:39:25;5.68;;;3.67;;
29984;SDS011;17387;42.690;23.328;2022-11-25T05:41:50;4.40;;;3.22;;
29984;SDS011;17387;42.690;23.328;2022-11-25T05:44:16;7.22;;;3.65;;
29984;SDS011;17387;42.690;23.328;2022-11-25T05:46:43;5.35;;;3.10;;
29984;SDS011;17387;42.690;23.328;2022-11-25T05:49:09;6.25;;;4.22;;
29984;SDS011;17387;42.690;23.328;2022-11-25T05:51:34;8.07;;;3.55;;
29984;SDS011;17387;42.690;23.328;2022-11-25T05:54:00;4.65;;;3.35;;
29984;SDS011;17387;42.690;23.328;2022-11-25T05:56:25;5.28;;;3.25;;
29984;SDS011;17387;42.690;23.328;2022-11-25T05:58:51;5.72;;;3.70;;
29984;SDS011;17387;42.690;23.328;2022-11-25T06:01:18;4.80;;;3.40;;
29984;SDS011;17387;42.690;23.328;2022-11-25T06:03:44;5.47;;;3.38;;
29984;SDS011;17387;42.690;23.328;2022-11-25T06:06:09;4.25;;;3.53;;
29984;SDS011;17387;42.690;23.328;2022-11-25T06:08:36;4.03;;;3.17;;
29984;SDS011;17387;42.690;23.328;2022-11-25T06:11:05;7.88;;;3.90;;
29984;SDS011;17387;42.690;23.328;2022-11-25T06:13:35;6.03;;;4.18;;
29984;SDS011;17387;42.690;23.328;2022-11-25T06:16:08;7.28;;;4.07;;
29984;SDS011;17387;42.690;23.328;2022-11-25T06:18:39;5.53;;;4.00;;
29984;SDS011;17387;42.690;23.328;2022-11-25T06:21:05;5.88;;;3.95;;
29984;SDS011;17387;42.690;23.328;2022-11-25T06:23:31;6.35;;;3.90;;
29984;SDS011;17387;42.690;23.328;2022-11-25T06:26:07;5.32;;;3.55;;
29984;SDS011;17387;42.690;23.328;2022-11-25T06:28:36;8.52;;;4.18;;
29984;SDS011;17387;42.690;23.328;2022-11-25T06:31:05;7.20;;;3.90;;
29984;SDS011;17387;42.690;23.328;2022-11-25T06:33:41;5.07;;;3.63;;
29984;SDS011;17387;42.690;23.328;2022-11-25T06:36:09;7.18;;;3.70;;
29984;SDS011;17387;42.690;23.328;2022-11-25T06:38:41;5.65;;;3.85;;
29984;SDS011;17387;42.690;23.328;2022-11-25T06:41:07;5.18;;;3.67;;
29984;SDS011;17387;42.690;23.328;2022-11-25T06:43:33;5.35;;;4.30;;
29984;SDS011;17387;42.690;23.328;2022-11-25T06:46:02;5.35;;;3.60;;
29984;SDS011;17387;42.690;23.328;2022-11-25T06:48:29;5.38;;;3.90;;
29984;SDS011;17387;42.690;23.328;2022-11-25T06:50:55;8.20;;;4.47;;
29984;SDS011;17387;42.690;23.328;2022-11-25T06:53:26;6.32;;;4.35;;
29984;SDS011;17387;42.690;23.328;2022-11-25T06:58:35;6.78;;;4.50;;
29984;SDS011;17387;42.690;23.328;2022-11-25T07:01:23;6.70;;;4.72;;
29984;SDS011;17387;42.690;23.328;2022-11-25T07:03:55;5.63;;;4.32;;
29984;SDS011;17387;42.690;23.328;2022-11-25T07:06:23;7.50;;;5.28;;
29984;SDS011;17387;42.690;23.328;2022-11-25T07:08:49;7.53;;;4.72;;
29984;SDS011;17387;42.690;23.328;2022-11-25T07:11:22;8.80;;;5.35;;
29984;SDS011;17387;42.690;23.328;2022-11-25T07:13:53;6.85;;;5.35;;
29984;SDS011;17387;42.690;23.328;2022-11-25T07:16:20;8.60;;;4.75;;
29984;SDS011;17387;42.690;23.328;2022-11-25T07:18:46;7.80;;;5.22;;
29984;SDS011;17387;42.690;23.328;2022-11-25T07:21:16;6.38;;;4.25;;
29984;SDS011;17387;42.690;23.328;2022-11-25T07:23:43;6.07;;;4.63;;
29984;SDS011;17387;42.690;23.328;2022-11-25T07:26:10;6.90;;;4.88;;
29984;SDS011;17387;42.690;23.328;2022-11-25T07:28:47;6.15;;;4.43;;
29984;SDS011;17387;42.690;23.328;2022-11-25T07:33:43;8.70;;;5.32;;
29984;SDS011;17387;42.690;23.328;2022-11-25T07:36:10;6.82;;;5.10;;
29984;SDS011;17387;42.690;23.328;2022-11-25T07:38:37;7.05;;;4.88;;
29984;SDS011;17387;42.690;23.328;2022-11-25T07:43:29;8.77;;;5.55;;
29984;SDS011;17387;42.690;23.328;2022-11-25T07:45:54;8.40;;;5.72;;
29984;SDS011;17387;42.690;23.328;2022-11-25T07:48:20;9.20;;;6.25;;
29984;SDS011;17387;42.690;23.328;2022-11-25T07:50:45;9.63;;;5.80;;
29984;SDS011;17387;42.690;23.328;2022-11-25T07:53:14;9.98;;;5.70;;
29984;SDS011;17387;42.690;23.328;2022-11-25T07:55:39;9.55;;;6.05;;
29984;SDS011;17387;42.690;23.328;2022-11-25T07:58:05;6.63;;;4.85;;
29984;SDS011;17387;42.690;23.328;2022-11-25T08:00:30;9.57;;;5.57;;
29984;SDS011;17387;42.690;23.328;2022-11-25T08:02:55;6.22;;;4.65;;
29984;SDS011;17387;42.690;23.328;2022-11-25T08:05:21;10.80;;;5.07;;
29984;SDS011;17387;42.690;23.328;2022-11-25T08:07:46;9.07;;;4.88;;
29984;SDS011;17387;42.690;23.328;2022-11-25T08:10:12;9.75;;;5.57;;
29984;SDS011;17387;42.690;23.328;2022-11-25T08:12:37;6.68;;;4.72;;
29984;SDS011;17387;42.690;23.328;2022-11-25T08:15:02;8.00;;;4.72;;
29984;SDS011;17387;42.690;23.328;2022-11-25T08:17:28;7.72;;;5.30;;
29984;SDS011;17387;42.690;23.328;2022-11-25T08:19:53;8.27;;;4.68;;
29984;SDS011;17387;42.690;23.328;2022-11-25T08:22:19;6.47;;;4.95;;
29984;SDS011;17387;42.690;23.328;2022-11-25T08:24:44;6.00;;;4.13;;
29984;SDS011;17387;42.690;23.328;2022-11-25T08:27:10;7.00;;;4.95;;
29984;SDS011;17387;42.690;23.328;2022-11-25T08:29:35;6.07;;;4.43;;
29984;SDS011;17387;42.690;23.328;2022-11-25T08:32:01;6.70;;;5.13;;
29984;SDS011;17387;42.690;23.328;2022-11-25T08:34:26;8.20;;;5.32;;
29984;SDS011;17387;42.690;23.328;2022-11-25T08:36:51;7.65;;;5.50;;
29984;SDS011;17387;42.690;23.328;2022-11-25T08:39:17;7.57;;;4.68;;
29984;SDS011;17387;42.690;23.328;2022-11-25T08:41:44;5.45;;;4.40;;
29984;SDS011;17387;42.690;23.328;2022-11-25T08:44:10;5.50;;;4.30;;
29984;SDS011;17387;42.690;23.328;2022-11-25T08:46:38;9.80;;;5.18;;
29984;SDS011;17387;42.690;23.328;2022-11-25T08:49:05;5.97;;;4.60;;
29984;SDS011;17387;42.690;23.328;2022-11-25T08:51:34;9.27;;;5.28;;
29984;SDS011;17387;42.690;23.328;2022-11-25T08:54:01;7.75;;;4.97;;
29984;SDS011;17387;42.690;23.328;2022-11-25T08:56:28;8.30;;;5.60;;
29984;SDS011;17387;42.690;23.328;2022-11-25T08:58:54;7.53;;;5.10;;
29984;SDS011;17387;42.690;23.328;2022-11-25T09:01:20;9.10;;;5.93;;
29984;SDS011;17387;42.690;23.328;2022-11-25T09:03:47;9.20;;;5.85;;
29984;SDS011;17387;42.690;23.328;2022-11-25T09:06:14;7.53;;;5.28;;
29984;SDS011;17387;42.690;23.328;2022-11-25T09:08:40;6.00;;;4.78;;
29984;SDS011;17387;42.690;23.328;2022-11-25T09:11:07;8.35;;;4.85;;
29984;SDS011;17387;42.690;23.328;2022-11-25T09:13:33;8.27;;;5.57;;
29984;SDS011;17387;42.690;23.328;2022-11-25T09:15:59;7.75;;;5.15;;
29984;SDS011;17387;42.690;23.328;2022-11-25T09:18:27;6.47;;;5.03;;
29984;SDS011;17387;42.690;23.328;2022-11-25T09:20:54;7.65;;;5.57;;
29984;SDS011;17387;42.690;23.328;2022-11-25T09:23:21;8.18;;;5.72;;
29984;SDS011;17387;42.690;23.328;2022-11-25T09:25:54;8.35;;;5.30;;
29984;SDS011;17387;42.690;23.328;2022-11-25T09:28:21;9.38;;;5.47;;
29984;SDS011;17387;42.690;23.328;2022-11-25T09:30:47;8.25;;;5.45;;
29984;SDS011;17387;42.690;23.328;2022-11-25T09:33:13;8.00;;;6.45;;
29984;SDS011;17387;42.690;23.328;2022-11-25T09:35:39;8.98;;;5.25;;
29984;SDS011;17387;42.690;23.328;2022-11-25T09:38:04;7.15;;;5.50;;
29984;SDS011;17387;42.690;23.328;2022-11-25T09:46:46;6.30;;;5.00;;
29984;SDS011;17387;42.690;23.328;2022-11-25T10:00:08;7.78;;;4.65;;
29984;SDS011;17387;42.690;23.328;2022-11-25T10:02:45;7.82;;;5.82;;
29984;SDS011;17387;42.690;23.328;2022-11-25T10:05:19;9.00;;;5.10;;
29984;SDS011;17387;42.690;23.328;2022-11-25T10:07:48;10.25;;;4.57;;
29984;SDS011;17387;42.690;23.328;2022-11-25T10:10:19;7.30;;;4.53;;
29984;SDS011;17387;42.690;23.328;2022-11-25T10:12:55;7.47;;;4.60;;
29984;SDS011;17387;42.690;23.328;2022-11-25T10:15:26;6.82;;;4.28;;
29984;SDS011;17387;42.690;23.328;2022-11-25T10:17:59;8.10;;;4.82;;
29984;SDS011;17387;42.690;23.328;2022-11-25T10:20:30;8.50;;;4.90;;
29984;SDS011;17387;42.690;23.328;2022-11-25T10:23:00;6.68;;;4.40;;
29984;SDS011;17387;42.690;23.328;2022-11-25T10:25:29;6.88;;;5.22;;
29984;SDS011;17387;42.690;23.328;2022-11-25T10:28:03;7.00;;;4.38;;
29984;SDS011;17387;42.690;23.328;2022-11-25T10:30:53;5.43;;;3.45;;
29984;SDS011;17387;42.690;23.328;2022-11-25T10:33:29;6.53;;;4.03;;
29984;SDS011;17387;42.690;23.328;2022-11-25T10:38:38;6.30;;;4.03;;
29984;SDS011;17387;42.690;23.328;2022-11-25T10:41:25;5.13;;;3.67;;
29984;SDS011;17387;42.690;23.328;2022-11-25T10:43:54;4.45;;;3.28;;
29984;SDS011;17387;42.690;23.328;2022-11-25T10:46:29;6.70;;;3.45;;
29984;SDS011;17387;42.690;23.328;2022-11-25T10:49:14;9.73;;;4.25;;
29984;SDS011;17387;42.690;23.328;2022-11-25T10:51:52;6.20;;;3.33;;
29984;SDS011;17387;42.690;23.328;2022-11-25T10:54:22;8.05;;;3.47;;
29984;SDS011;17387;42.690;23.328;2022-11-25T10:56:53;7.03;;;3.80;;
29984;SDS011;17387;42.690;23.328;2022-11-25T11:04:50;8.45;;;3.83;;
29984;SDS011;17387;42.690;23.328;2022-11-25T11:07:18;6.72;;;3.50;;
29984;SDS011;17387;42.690;23.328;2022-11-25T11:09:45;7.75;;;3.40;;
29984;SDS011;17387;42.690;23.328;2022-11-25T11:14:46;8.05;;;4.15;;
29984;SDS011;17387;42.690;23.328;2022-11-25T11:17:32;7.63;;;4.25;;
29984;SDS011;17387;42.690;23.328;2022-11-25T11:20:09;8.07;;;4.38;;
29984;SDS011;17387;42.690;23.328;2022-11-25T11:22:46;6.72;;;4.88;;
29984;SDS011;17387;42.690;23.328;2022-11-25T11:27:45;6.65;;;4.38;;
29984;SDS011;17387;42.690;23.328;2022-11-25T11:30:16;7.78;;;4.10;;
29984;SDS011;17387;42.690;23.328;2022-11-25T11:32:44;8.73;;;4.90;;
29984;SDS011;17387;42.690;23.328;2022-11-25T11:35:28;5.72;;;3.80;;
29984;SDS011;17387;42.690;23.328;2022-11-25T11:38:12;9.80;;;4.88;;
29984;SDS011;17387;42.690;23.328;2022-11-25T11:40:52;10.40;;;4.78;;
29984;SDS011;17387;42.690;23.328;2022-11-25T12:06:39;6.85;;;4.18;;
29984;SDS011;17387;42.690;23.328;2022-11-25T12:09:11;11.30;;;5.07;;
29984;SDS011;17387;42.690;23.328;2022-11-25T12:11:44;6.90;;;4.40;;
29984;SDS011;17387;42.690;23.328;2022-11-25T12:16:47;6.70;;;4.90;;
29984;SDS011;17387;42.690;23.328;2022-11-25T12:22:31;8.55;;;5.25;;
29984;SDS011;17387;42.690;23.328;2022-11-25T12:27:43;7.35;;;4.88;;
29984;SDS011;17387;42.690;23.328;2022-11-25T12:38:37;6.88;;;5.13;;
29984;SDS011;17387;42.690;23.328;2022-11-25T12:43:59;8.10;;;6.40;;
29984;SDS011;17387;42.690;23.328;2022-11-25T12:46:44;7.70;;;4.90;;
29984;SDS011;17387;42.690;23.328;2022-11-25T12:49:16;12.13;;;5.95;;
29984;SDS011;17387;42.690;23.328;2022-11-25T12:54:28;9.60;;;5.85;;
29984;SDS011;17387;42.690;23.328;2022-11-25T12:57:30;8.60;;;5.13;;
29984;SDS011;17387;42.690;23.328;2022-11-25T13:17:42;7.85;;;5.10;;
29984;SDS011;17387;42.690;23.328;2022-11-25T13:25:29;8.93;;;5.82;;
29984;SDS011;17387;42.690;23.328;2022-11-25T13:27:56;10.30;;;6.50;;
29984;SDS011;17387;42.690;23.328;2022-11-25T13:33:50;9.23;;;6.07;;
29984;SDS011;17387;42.690;23.328;2022-11-25T13:35:52;6.80;;;5.13;;
29984;SDS011;17387;42.690;23.328;2022-11-25T13:43:47;9.55;;;5.50;;
29984;SDS011;17387;42.690;23.328;2022-11-25T13:46:37;8.55;;;6.05;;
29984;SDS011;17387;42.690;23.328;2022-11-25T13:49:06;9.40;;;6.45;;
29984;SDS011;17387;42.690;23.328;2022-11-25T13:51:49;10.52;;;7.30;;
29984;SDS011;17387;42.690;23.328;2022-11-25T13:54:18;8.38;;;5.82;;
29984;SDS011;17387;42.690;23.328;2022-11-25T13:56:58;9.90;;;7.32;;
29984;SDS011;17387;42.690;23.328;2022-11-25T13:59:49;10.68;;;7.22;;
29984;SDS011;17387;42.690;23.328;2022-11-25T14:10:17;9.48;;;7.28;;
29984;SDS011;17387;42.690;23.328;2022-11-25T14:15:46;12.23;;;7.95;;
29984;SDS011;17387;42.690;23.328;2022-11-25T14:29:20;11.77;;;8.02;;
29984;SDS011;17387;42.690;23.328;2022-11-25T14:32:06;11.63;;;8.27;;
29984;SDS011;17387;42.690;23.328;2022-11-25T14:34:45;12.88;;;8.63;;
29984;SDS011;17387;42.690;23.328;2022-11-25T14:37:16;14.52;;;9.50;;
29984;SDS011;17387;42.690;23.328;2022-11-25T14:40:09;11.93;;;8.65;;
29984;SDS011;17387;42.690;23.328;2022-11-25T14:42:41;13.32;;;9.02;;
29984;SDS011;17387;42.690;23.328;2022-11-25T14:48:15;14.45;;;9.23;;
29984;SDS011;17387;42.690;23.328;2022-11-25T14:53:20;18.80;;;10.45;;
29984;SDS011;17387;42.690;23.328;2022-11-25T14:55:46;18.88;;;11.73;;
29984;SDS011;17387;42.690;23.328;2022-11-25T14:58:13;17.20;;;11.70;;
29984;SDS011;17387;42.690;23.328;2022-11-25T15:00:52;15.93;;;11.63;;
29984;SDS011;17387;42.690;23.328;2022-11-25T15:03:23;17.73;;;11.63;;
29984;SDS011;17387;42.690;23.328;2022-11-25T15:05:55;20.33;;;12.13;;
29984;SDS011;17387;42.690;23.328;2022-11-25T15:08:24;22.85;;;13.60;;
29984;SDS011;17387;42.690;23.328;2022-11-25T15:16:03;20.10;;;12.98;;
29984;SDS011;17387;42.690;23.328;2022-11-25T15:18:51;20.98;;;13.30;;
29984;SDS011;17387;42.690;23.328;2022-11-25T15:21:23;16.40;;;9.45;;
29984;SDS011;17387;42.690;23.328;2022-11-25T15:23:53;18.70;;;12.27;;
29984;SDS011;17387;42.690;23.328;2022-11-25T15:26:22;17.15;;;9.90;;
29984;SDS011;17387;42.690;23.328;2022-11-25T15:28:56;16.08;;;10.73;;
29984;SDS011;17387;42.690;23.328;2022-11-25T15:31:25;17.83;;;11.80;;
29984;SDS011;17387;42.690;23.328;2022-11-25T15:33:53;17.63;;;10.68;;
29984;SDS011;17387;42.690;23.328;2022-11-25T15:36:22;18.88;;;11.43;;
29984;SDS011;17387;42.690;23.328;2022-11-25T15:38:48;18.10;;;11.70;;
29984;SDS011;17387;42.690;23.328;2022-11-25T15:41:24;19.17;;;11.85;;
29984;SDS011;17387;42.690;23.328;2022-11-25T15:44:01;17.45;;;11.77;;
29984;SDS011;17387;42.690;23.328;2022-11-25T15:46:29;14.85;;;10.00;;
29984;SDS011;17387;42.690;23.328;2022-11-25T15:49:02;17.50;;;11.52;;
29984;SDS011;17387;42.690;23.328;2022-11-25T15:54:20;16.45;;;10.45;;
29984;SDS011;17387;42.690;23.328;2022-11-25T15:56:47;19.00;;;11.15;;
29984;SDS011;17387;42.690;23.328;2022-11-25T16:07:36;19.20;;;12.30;;
29984;SDS011;17387;42.690;23.328;2022-11-25T16:15:42;18.63;;;10.48;;
29984;SDS011;17387;42.690;23.328;2022-11-25T16:18:11;15.77;;;8.98;;
29984;SDS011;17387;42.690;23.328;2022-11-25T16:21:14;12.13;;;7.95;;
29984;SDS011;17387;42.690;23.328;2022-11-25T16:23:33;13.85;;;7.93;;
29984;SDS011;17387;42.690;23.328;2022-11-25T16:26:02;11.25;;;7.53;;
29984;SDS011;17387;42.690;23.328;2022-11-25T16:28:31;13.02;;;6.63;;
29984;SDS011;17387;42.690;23.328;2022-11-25T16:30:56;12.82;;;7.20;;
29984;SDS011;17387;42.690;23.328;2022-11-25T16:33:24;10.52;;;6.75;;
29984;SDS011;17387;42.690;23.328;2022-11-25T16:35:49;11.82;;;6.72;;
29984;SDS011;17387;42.690;23.328;2022-11-25T16:38:16;11.20;;;6.88;;
29984;SDS011;17387;42.690;23.328;2022-11-25T16:40:41;15.93;;;8.70;;
29984;SDS011;17387;42.690;23.328;2022-11-25T16:43:16;12.88;;;7.43;;
29984;SDS011;17387;42.690;23.328;2022-11-25T16:45:48;12.32;;;6.95;;
29984;SDS011;17387;42.690;23.328;2022-11-25T16:48:18;10.95;;;6.93;;
29984;SDS011;17387;42.690;23.328;2022-11-25T16:50:45;14.43;;;7.78;;
29984;SDS011;17387;42.690;23.328;2022-11-25T16:53:10;12.77;;;7.20;;
29984;SDS011;17387;42.690;23.328;2022-11-25T16:55:37;11.35;;;7.72;;
29984;SDS011;17387;42.690;23.328;2022-11-25T16:58:06;11.93;;;7.68;;
29984;SDS011;17387;42.690;23.328;2022-11-25T17:00:38;14.20;;;8.05;;
29984;SDS011;17387;42.690;23.328;2022-11-25T17:03:04;13.82;;;8.85;;
29984;SDS011;17387;42.690;23.328;2022-11-25T17:05:33;15.07;;;8.45;;
29984;SDS011;17387;42.690;23.328;2022-11-25T17:08:00;16.55;;;8.93;;
29984;SDS011;17387;42.690;23.328;2022-11-25T17:10:25;13.00;;;9.18;;
29984;SDS011;17387;42.690;23.328;2022-11-25T17:12:51;12.23;;;7.15;;
29984;SDS011;17387;42.690;23.328;2022-11-25T17:15:18;8.50;;;5.60;;
29984;SDS011;17387;42.690;23.328;2022-11-25T17:17:48;10.52;;;6.47;;
29984;SDS011;17387;42.690;23.328;2022-11-25T17:20:14;11.30;;;6.10;;
29984;SDS011;17387;42.690;23.328;2022-11-25T17:22:41;10.48;;;6.57;;
29984;SDS011;17387;42.690;23.328;2022-11-25T17:25:06;12.02;;;6.50;;
29984;SDS011;17387;42.690;23.328;2022-11-25T17:27:33;13.23;;;6.72;;
29984;SDS011;17387;42.690;23.328;2022-11-25T17:29:59;16.60;;;7.63;;
29984;SDS011;17387;42.690;23.328;2022-11-25T17:32:28;12.75;;;7.50;;